Time;durP1;ratioP1;P1;durP2;ratioP2;P2;SDS_P1;SDS_P2;PMS_P1;PMS_P2;Temp;Humidity;BMP_temperature;BMP_pressure;BME280_temperature;BME280_humidity;BME280_pressure;Samples;Min_cycle;Max_cycle;Signal;HPM_P1;HPM_P2
2022/06/10 00:00:45;;;;;;;1.45;0.40;;;21.30;80.90;;;;;;5035754;28;20029;-75
2022/06/10 00:03:14;;;;;;;0.20;0.13;;;21.20;79.30;;;;;;5031873;28;20037;-73
2022/06/10 00:05:46;;;;;;;0.10;0.10;;;21.50;78.80;;;;;;5034668;28;20115;-75
2022/06/10 00:08:16;;;;;;;0.10;0.10;;;21.50;78.30;;;;;;5041859;28;20040;-75
2022/06/10 00:10:49;;;;;;;0.25;0.10;;;21.60;78.10;;;;;;5035227;28;20415;-76
2022/06/10 00:13:18;;;;;;;0.17;0.10;;;21.90;78.00;;;;;;5030208;28;20021;-76
2022/06/10 00:15:47;;;;;;;0.73;0.10;;;22.30;77.20;;;;;;5032074;28;20037;-77
2022/06/10 00:18:15;;;;;;;0.32;0.20;;;22.50;77.40;;;;;;5043269;28;20040;-76
2022/06/10 00:20:44;;;;;;;1.05;0.17;;;22.80;74.40;;;;;;5046345;28;20037;-73
2022/06/10 00:23:11;;;;;;;0.93;0.50;;;22.70;74.90;;;;;;5031827;28;20060;-76
2022/06/10 00:25:39;;;;;;;0.88;0.13;;;22.70;75.50;;;;;;5036357;28;20446;-76
2022/06/10 00:28:08;;;;;;;0.10;0.10;;;22.70;75.20;;;;;;5039054;28;20068;-74
2022/06/10 00:30:36;;;;;;;0.65;0.17;;;23.00;74.70;;;;;;5031060;28;20487;-72
2022/06/10 00:33:05;;;;;;;0.57;0.20;;;23.20;75.10;;;;;;5039985;28;20055;-74
2022/06/10 00:35:33;;;;;;;0.75;0.32;;;23.50;74.80;;;;;;5039840;28;20030;-72
2022/06/10 00:38:11;;;;;;;3.92;0.20;;;23.60;72.40;;;;;;5045211;28;20044;-75
2022/06/10 00:40:47;;;;;;;0.93;0.28;;;23.10;73.90;;;;;;5029868;28;20025;-72
2022/06/10 00:43:17;;;;;;;0.20;0.20;;;23.20;73.30;;;;;;5030953;28;20114;-74
2022/06/10 00:46:16;;;;;;;0.45;0.20;;;23.30;75.10;;;;;;5031644;28;20728;-72
2022/06/10 00:48:58;;;;;;;0.45;0.22;;;23.60;74.50;;;;;;5042680;28;20052;-74
2022/06/10 00:51:28;;;;;;;1.25;0.70;;;23.60;72.10;;;;;;5041202;28;20112;-73
2022/06/10 00:54:02;;;;;;;0.40;0.32;;;23.40;74.10;;;;;;5033060;28;20033;-73
2022/06/10 00:56:29;;;;;;;0.63;0.40;;;23.20;74.20;;;;;;5041870;28;20032;-72
2022/06/10 00:59:09;;;;;;;2.65;0.40;;;23.50;73.60;;;;;;5038736;28;20082;-77
2022/06/10 01:01:37;;;;;;;0.30;0.25;;;23.40;74.70;;;;;;5037096;28;20041;-77
2022/06/10 01:04:05;;;;;;;0.52;0.30;;;23.70;72.00;;;;;;5038507;28;20017;-80
2022/06/10 01:06:33;;;;;;;0.22;0.10;;;23.90;71.60;;;;;;5034322;28;20025;-80
2022/06/10 01:09:02;;;;;;;0.57;0.10;;;24.30;70.70;;;;;;5036062;28;20493;-78
2022/06/10 01:11:49;;;;;;;0.10;0.00;;;24.40;70.00;;;;;;5046404;28;20124;-75
2022/06/10 01:14:37;;;;;;;0.47;0.10;;;24.40;70.10;;;;;;5033060;28;20024;-75
2022/06/10 01:17:48;;;;;;;0.00;0.00;;;24.60;70.10;;;;;;5026800;28;20060;-78
2022/06/10 01:20:39;;;;;;;0.90;0.10;;;24.70;69.80;;;;;;5021434;28;20072;-76
2022/06/10 01:23:18;;;;;;;0.55;0.10;;;24.70;69.10;;;;;;5030702;28;20041;-73
2022/06/10 01:26:24;;;;;;;0.35;0.00;;;24.80;69.20;;;;;;5030278;28;20389;-76
2022/06/10 01:29:21;;;;;;;0.00;0.00;;;25.10;68.50;;;;;;5025777;28;20033;-76
2022/06/10 01:31:59;;;;;;;0.25;0.08;;;25.40;67.90;;;;;;5033612;28;20108;-79
2022/06/10 01:34:29;;;;;;;0.75;0.10;;;24.90;67.80;;;;;;5040472;28;20096;-76
2022/06/10 01:37:07;;;;;;;0.13;0.10;;;24.70;68.70;;;;;;5029353;28;20485;-81
2022/06/10 01:40:00;;;;;;;0.40;0.10;;;25.10;68.60;;;;;;5034085;28;20037;-77
2022/06/10 01:42:46;;;;;;;0.63;0.22;;;25.30;68.40;;;;;;5031084;28;20042;-80
2022/06/10 01:45:37;;;;;;;0.10;0.00;;;25.00;67.30;;;;;;5051085;28;20396;-78
2022/06/10 01:48:12;;;;;;;0.98;0.10;;;24.60;70.00;;;;;;5043756;28;20032;-76
2022/06/10 01:50:59;;;;;;;1.27;0.60;;;24.90;68.50;;;;;;5048657;28;20043;-76
2022/06/10 01:53:32;;;;;;;0.30;0.00;;;25.20;67.40;;;;;;5043181;28;20128;-78
2022/06/10 01:56:30;;;;;;;1.70;0.15;;;25.80;70.00;;;;;;5055675;28;20048;-81
2022/06/10 01:59:22;;;;;;;0.20;0.20;;;26.30;67.10;;;;;;5047435;28;20061;-76
2022/06/10 02:02:00;;;;;;;0.03;0.00;;;26.70;67.30;;;;;;5038365;28;20065;-78
2022/06/10 02:04:32;;;;;;;0.95;0.10;;;26.30;66.60;;;;;;5042362;28;20025;-78
2022/06/10 02:07:06;;;;;;;0.45;0.10;;;26.50;65.40;;;;;;5043114;28;20068;-75
2022/06/10 02:09:47;;;;;;;0.32;0.10;;;26.30;65.90;;;;;;5046727;28;20026;-74
2022/06/10 02:12:36;;;;;;;0.20;0.00;;;26.70;67.00;;;;;;5051925;28;20127;-76
2022/06/10 02:15:09;;;;;;;0.20;0.05;;;26.80;67.00;;;;;;5032936;28;20034;-76
2022/06/10 02:17:42;;;;;;;0.05;0.00;;;26.80;65.00;;;;;;5049796;28;20383;-76
2022/06/10 02:20:15;;;;;;;0.08;0.00;;;26.70;65.00;;;;;;5035736;28;20025;-76
2022/06/10 02:22:45;;;;;;;0.00;0.00;;;26.50;65.50;;;;;;5040029;28;20067;-73
2022/06/10 02:25:23;;;;;;;0.75;0.00;;;26.60;65.90;;;;;;5026737;28;20372;-76
2022/06/10 02:27:59;;;;;;;0.20;0.00;;;26.60;65.50;;;;;;5038527;28;20033;-79
2022/06/10 02:31:01;;;;;;;0.13;0.00;;;26.70;65.40;;;;;;5044274;28;20033;-76
2022/06/10 02:33:29;;;;;;;0.00;0.00;;;26.80;65.40;;;;;;5000226;28;20041;-75
2022/06/10 02:36:07;;;;;;;0.20;0.10;;;26.60;65.40;;;;;;5024480;28;20468;-73
2022/06/10 02:38:40;;;;;;;0.00;0.00;;;26.30;65.50;;;;;;5038750;28;20040;-75
2022/06/10 02:41:17;;;;;;;0.77;0.10;;;25.90;65.80;;;;;;5040649;28;20396;-77
2022/06/10 02:43:48;;;;;;;0.30;0.00;;;26.10;66.20;;;;;;5049109;28;20024;-77
2022/06/10 02:46:31;;;;;;;0.00;0.00;;;25.70;65.30;;;;;;5044228;28;20025;-76
2022/06/10 02:49:11;;;;;;;0.00;0.00;;;25.70;65.90;;;;;;5037600;28;20518;-79
2022/06/10 02:51:39;;;;;;;1.25;0.10;;;25.80;66.90;;;;;;5047304;28;20029;-75
2022/06/10 02:54:20;;;;;;;0.00;0.00;;;25.70;66.90;;;;;;5042492;28;20056;-79
2022/06/10 02:56:48;;;;;;;0.15;0.03;;;25.50;66.50;;;;;;5039752;28;20036;-80
2022/06/10 03:02:16;;;;;;;0.00;0.00;;;24.80;66.80;;;;;;5037891;28;20117;-75
2022/06/10 03:05:11;;;;;;;0.30;0.00;;;24.50;67.60;;;;;;5033847;28;20041;-75
2022/06/10 03:08:01;;;;;;;0.05;0.00;;;24.10;68.10;;;;;;5037966;28;20091;-76
2022/06/10 03:10:51;;;;;;;0.00;0.00;;;23.90;67.80;;;;;;5042888;28;20104;-76
2022/06/10 03:13:33;;;;;;;0.00;0.00;;;23.30;66.90;;;;;;5046761;28;20036;-78
2022/06/10 03:16:20;;;;;;;0.45;0.00;;;23.10;68.80;;;;;;5037178;28;20061;-78
2022/06/10 03:19:13;;;;;;;0.25;0.10;;;22.70;68.80;;;;;;5035223;28;20167;-76
2022/06/10 03:22:01;;;;;;;0.55;0.00;;;22.40;68.90;;;;;;5043564;28;20034;-78
2022/06/10 03:25:10;;;;;;;0.32;0.00;;;22.00;69.80;;;;;;5034688;28;20063;-77
2022/06/10 03:28:28;;;;;;;0.00;0.00;;;21.60;70.00;;;;;;5028999;28;20044;-75
2022/06/10 03:31:19;;;;;;;0.00;0.00;;;21.30;70.40;;;;;;5036250;28;20039;-75
2022/06/10 03:33:59;;;;;;;0.00;0.00;;;20.70;71.10;;;;;;5035138;28;20068;-76
2022/06/10 03:36:28;;;;;;;0.10;0.00;;;20.30;72.40;;;;;;5043242;28;20017;-77
2022/06/10 03:38:56;;;;;;;0.10;0.05;;;20.00;73.00;;;;;;5043847;28;20127;-78
2022/06/10 03:41:30;;;;;;;0.00;0.00;;;19.70;73.60;;;;;;5042600;28;20106;-77
2022/06/10 03:44:00;;;;;;;0.00;0.00;;;19.50;73.80;;;;;;5047650;28;20108;-75
2022/06/10 03:46:32;;;;;;;0.00;0.00;;;19.10;74.40;;;;;;5040897;28;20090;-76
2022/06/10 03:49:04;;;;;;;0.00;0.00;;;19.00;75.40;;;;;;5045232;28;20132;-75
2022/06/10 03:51:32;;;;;;;0.00;0.00;;;18.80;75.40;;;;;;5046958;28;20070;-74
2022/06/10 03:53:59;;;;;;;0.10;0.00;;;18.70;76.30;;;;;;5045566;28;20091;-75
2022/06/10 03:56:26;;;;;;;0.20;0.00;;;18.60;76.30;;;;;;5043907;28;20064;-77
2022/06/10 03:58:54;;;;;;;0.90;0.45;;;18.50;75.80;;;;;;5035252;28;20096;-76
2022/06/10 04:01:21;;;;;;;0.17;0.03;;;18.30;77.00;;;;;;5044233;28;20037;-77
2022/06/10 04:03:49;;;;;;;0.00;0.00;;;18.30;76.50;;;;;;5033504;28;20220;-76
2022/06/10 04:06:20;;;;;;;0.08;0.00;;;18.20;76.70;;;;;;5044508;28;20037;-76
2022/06/10 04:08:47;;;;;;;0.17;0.10;;;18.20;77.50;;;;;;5037110;28;20098;-75
2022/06/10 04:11:15;;;;;;;0.43;0.05;;;18.20;77.80;;;;;;5050632;28;20523;-75
2022/06/10 04:13:44;;;;;;;2.58;0.10;;;18.20;77.40;;;;;;5048040;28;20041;-74
2022/06/10 04:16:12;;;;;;;0.10;0.10;;;18.10;77.80;;;;;;5041664;28;20102;-76
2022/06/10 04:18:39;;;;;;;0.00;0.00;;;18.00;78.30;;;;;;5048902;28;20021;-76
2022/06/10 04:21:07;;;;;;;0.00;0.00;;;17.90;77.40;;;;;;5034655;28;20067;-75
2022/06/10 04:23:34;;;;;;;0.25;0.10;;;17.80;77.50;;;;;;5048431;28;20345;-75
2022/06/10 04:26:02;;;;;;;0.00;0.00;;;17.80;77.30;;;;;;5047521;28;20452;-75
2022/06/10 04:28:30;;;;;;;0.00;0.00;;;17.70;78.90;;;;;;5031642;28;20136;-75
2022/06/10 04:30:57;;;;;;;0.32;0.00;;;17.60;78.00;;;;;;5049376;28;20029;-75
2022/06/10 04:33:25;;;;;;;3.40;0.10;;;17.50;78.50;;;;;;5041003;28;20397;-73
2022/06/10 04:35:53;;;;;;;0.00;0.00;;;17.50;78.40;;;;;;5039432;28;20031;-73
2022/06/10 04:38:22;;;;;;;0.57;0.57;;;17.40;78.40;;;;;;5043999;28;20038;-74
2022/06/10 04:40:50;;;;;;;2.00;0.10;;;17.40;78.80;;;;;;5042930;28;20526;-75
2022/06/10 04:43:17;;;;;;;1.10;0.17;;;17.30;78.40;;;;;;5040833;28;20476;-74
2022/06/10 04:45:51;;;;;;;0.60;0.00;;;17.20;78.90;;;;;;5048677;28;20098;-76
2022/06/10 04:48:19;;;;;;;0.08;0.00;;;17.20;79.10;;;;;;5043584;28;20098;-73
2022/06/10 04:50:49;;;;;;;0.35;0.10;;;17.20;79.10;;;;;;5042741;28;20052;-72
2022/06/10 04:53:17;;;;;;;0.52;0.10;;;17.20;79.30;;;;;;5039081;28;20029;-73
2022/06/10 04:55:44;;;;;;;0.05;0.05;;;17.10;79.40;;;;;;5035399;28;20025;-74
2022/06/10 04:58:13;;;;;;;0.38;0.00;;;17.10;79.90;;;;;;5038394;28;20105;-77
2022/06/10 05:00:45;;;;;;;0.00;0.00;;;17.10;79.50;;;;;;5045735;28;20029;-73
2022/06/10 05:03:13;;;;;;;0.10;0.00;;;17.00;79.80;;;;;;5041493;28;20102;-74
2022/06/10 05:05:40;;;;;;;0.03;0.00;;;17.00;80.10;;;;;;5047278;28;20032;-75
2022/06/10 05:08:10;;;;;;;0.17;0.17;;;17.00;80.20;;;;;;5047533;28;20086;-74
2022/06/10 05:10:38;;;;;;;0.10;0.00;;;17.00;80.80;;;;;;5039619;28;20029;-74
2022/06/10 05:13:06;;;;;;;0.25;0.25;;;17.00;80.30;;;;;;5036432;28;20033;-74
2022/06/10 05:15:33;;;;;;;0.25;0.10;;;16.90;80.20;;;;;;5039302;28;20021;-76
2022/06/10 05:18:01;;;;;;;0.15;0.03;;;16.80;80.40;;;;;;5035428;28;20039;-71
2022/06/10 05:20:38;;;;;;;1.85;0.00;;;16.80;80.80;;;;;;5048671;28;20064;-73
2022/06/10 05:23:07;;;;;;;0.63;0.10;;;16.70;80.70;;;;;;5045871;28;20029;-73
2022/06/10 05:25:35;;;;;;;1.27;0.40;;;16.70;80.60;;;;;;5051985;28;20029;-75
2022/06/10 05:28:03;;;;;;;0.10;0.03;;;16.70;80.70;;;;;;5040355;28;20017;-77
2022/06/10 05:30:32;;;;;;;0.30;0.10;;;16.60;81.20;;;;;;5045276;28;20088;-75
2022/06/10 05:33:01;;;;;;;0.05;0.00;;;16.60;80.10;;;;;;5041798;28;20025;-75
2022/06/10 05:35:30;;;;;;;0.20;0.00;;;16.50;79.80;;;;;;5044864;28;20044;-75
2022/06/10 05:37:57;;;;;;;0.25;0.00;;;16.50;79.20;;;;;;5054283;28;20029;-75
2022/06/10 05:40:30;;;;;;;0.00;0.00;;;16.50;79.40;;;;;;5048398;28;20414;-73
2022/06/10 05:42:58;;;;;;;0.10;0.00;;;16.40;79.40;;;;;;5047314;28;20036;-72
2022/06/10 05:45:25;;;;;;;4.40;0.10;;;16.30;79.30;;;;;;5042637;28;20017;-77
2022/06/10 05:47:56;;;;;;;0.40;0.00;;;16.20;79.70;;;;;;5041768;28;20021;-74
2022/06/10 05:50:37;;;;;;;0.13;0.10;;;16.20;79.50;;;;;;5051822;28;20045;-73
2022/06/10 05:53:08;;;;;;;1.75;0.10;;;16.10;80.30;;;;;;5044090;28;20048;-73
2022/06/10 05:55:36;;;;;;;0.00;0.00;;;16.10;80.50;;;;;;5039078;28;20113;-75
2022/06/10 05:58:04;;;;;;;0.30;0.10;;;16.10;80.90;;;;;;5042716;28;20495;-73
2022/06/10 06:00:32;;;;;;;0.00;0.00;;;16.10;80.90;;;;;;5045721;28;20040;-74
2022/06/10 06:03:00;;;;;;;0.10;0.00;;;16.00;80.60;;;;;;5051172;28;20094;-71
2022/06/10 06:05:28;;;;;;;0.55;0.10;;;16.00;80.70;;;;;;5053843;28;20021;-74
2022/06/10 06:07:57;;;;;;;0.52;0.08;;;16.10;80.70;;;;;;5051904;28;20033;-73
2022/06/10 06:10:27;;;;;;;0.43;0.20;;;16.10;80.80;;;;;;5052671;28;20025;-77
2022/06/10 06:12:54;;;;;;;0.30;0.10;;;16.20;80.90;;;;;;5038720;28;20021;-76
2022/06/10 06:15:22;;;;;;;0.10;0.10;;;16.20;80.90;;;;;;5051866;28;20029;-75
2022/06/10 06:17:51;;;;;;;0.10;0.08;;;16.30;80.80;;;;;;5055933;28;20191;-74
2022/06/10 06:20:19;;;;;;;0.85;0.10;;;16.40;81.40;;;;;;5067869;28;20509;-76
2022/06/10 06:22:47;;;;;;;0.25;0.10;;;16.40;81.40;;;;;;5045834;28;20118;-76
2022/06/10 06:25:16;;;;;;;0.38;0.05;;;16.20;80.80;;;;;;5040503;28;20143;-75
2022/06/10 06:27:45;;;;;;;0.10;0.00;;;16.20;81.20;;;;;;5049212;28;20448;-75
2022/06/10 06:30:21;;;;;;;2.70;0.20;;;16.00;81.20;;;;;;5048817;28;20430;-73
2022/06/10 06:32:49;;;;;;;0.00;0.00;;;15.90;81.20;;;;;;5031489;28;20036;-73
2022/06/10 06:35:17;;;;;;;0.28;0.10;;;15.70;80.90;;;;;;5039509;28;20044;-73
2022/06/10 06:37:45;;;;;;;0.25;0.20;;;15.50;81.30;;;;;;5032567;28;20049;-74
2022/06/10 06:40:13;;;;;;;0.52;0.20;;;15.30;81.50;;;;;;5034291;28;20029;-73
2022/06/10 06:42:40;;;;;;;0.20;0.10;;;15.10;82.00;;;;;;5038442;28;20033;-72
2022/06/10 06:45:08;;;;;;;0.10;0.10;;;14.90;82.60;;;;;;5050674;28;20033;-73
2022/06/10 06:47:36;;;;;;;0.10;0.10;;;14.80;83.00;;;;;;5052636;28;20070;-73
2022/06/10 06:50:04;;;;;;;0.73;0.10;;;14.60;83.50;;;;;;5043125;28;20048;-73
2022/06/10 06:52:31;;;;;;;0.77;0.00;;;14.50;84.10;;;;;;5043667;28;20495;-73
2022/06/10 06:54:58;;;;;;;0.20;0.10;;;14.40;84.70;;;;;;5042009;28;20037;-74
2022/06/10 06:57:26;;;;;;;0.32;0.10;;;14.30;84.90;;;;;;5049652;28;20455;-73
2022/06/10 06:59:54;;;;;;;0.32;0.03;;;14.20;84.90;;;;;;5037782;28;20167;-72
2022/06/10 07:02:21;;;;;;;0.10;0.10;;;14.10;85.00;;;;;;5045005;28;20492;-73
2022/06/10 07:04:49;;;;;;;0.10;0.10;;;14.00;85.10;;;;;;5040852;28;20076;-72
2022/06/10 07:07:16;;;;;;;0.93;0.10;;;13.90;85.40;;;;;;5044206;28;20029;-73
2022/06/10 07:09:43;;;;;;;0.10;0.10;;;13.80;85.80;;;;;;5048564;28;20132;-72
2022/06/10 07:12:11;;;;;;;0.75;0.10;;;13.80;86.30;;;;;;5040329;28;20021;-74
2022/06/10 07:14:38;;;;;;;0.17;0.10;;;13.70;86.50;;;;;;5043760;28;20484;-73
2022/06/10 07:17:06;;;;;;;0.00;0.00;;;13.60;87.30;;;;;;5042244;28;20040;-72
2022/06/10 07:19:33;;;;;;;1.45;0.10;;;13.50;87.10;;;;;;5045410;28;20041;-72
2022/06/10 07:22:01;;;;;;;1.95;0.10;;;13.40;87.50;;;;;;5036455;28;20503;-75
2022/06/10 07:24:28;;;;;;;0.75;0.03;;;13.30;87.90;;;;;;5045686;28;20376;-73
2022/06/10 07:26:56;;;;;;;0.00;0.00;;;13.30;87.90;;;;;;5038851;28;20029;-72
2022/06/10 07:29:23;;;;;;;0.05;0.00;;;13.20;88.10;;;;;;5048477;28;20029;-73
2022/06/10 07:31:50;;;;;;;0.20;0.10;;;13.10;88.90;;;;;;5044975;28;20037;-74
2022/06/10 07:34:17;;;;;;;0.50;0.20;;;13.00;88.70;;;;;;5048609;28;20046;-73
2022/06/10 07:36:45;;;;;;;0.20;0.10;;;13.00;88.80;;;;;;5041707;28;20480;-74
2022/06/10 07:39:12;;;;;;;0.20;0.20;;;13.00;89.10;;;;;;5046439;28;20078;-72
2022/06/10 07:42:00;;;;;;;0.93;0.35;;;13.00;88.90;;;;;;5045519;28;20035;-72
2022/06/10 07:44:38;;;;;;;0.10;0.10;;;12.90;88.80;;;;;;5042716;28;20051;-72
2022/06/10 07:47:09;;;;;;;0.20;0.20;;;12.90;88.50;;;;;;5050588;28;20025;-73
2022/06/10 07:49:37;;;;;;;0.17;0.15;;;12.90;88.60;;;;;;5048596;28;20049;-73
2022/06/10 07:52:05;;;;;;;0.68;0.30;;;12.90;88.60;;;;;;5043650;28;20125;-72
2022/06/10 07:54:36;;;;;;;0.22;0.20;;;12.80;88.90;;;;;;5030463;28;20480;-73
2022/06/10 07:57:06;;;;;;;2.30;0.70;;;12.80;89.20;;;;;;5034009;28;20032;-72
2022/06/10 07:59:34;;;;;;;1.83;0.80;;;12.80;89.40;;;;;;5047561;28;20029;-73
2022/06/10 08:02:02;;;;;;;0.82;0.50;;;12.70;89.80;;;;;;5031271;28;20534;-73
2022/06/10 08:04:29;;;;;;;0.88;0.40;;;12.60;90.00;;;;;;5043522;28;20033;-72
2022/06/10 08:06:57;;;;;;;3.10;1.70;;;12.50;90.10;;;;;;5050512;28;20032;-75
2022/06/10 08:09:24;;;;;;;6.82;2.90;;;12.40;90.30;;;;;;5047617;28;20021;-74
2022/06/10 08:11:52;;;;;;;4.00;1.52;;;12.40;90.50;;;;;;5040089;28;20040;-72
2022/06/10 08:14:20;;;;;;;0.60;0.40;;;12.30;90.60;;;;;;5039944;28;20084;-74
2022/06/10 08:16:49;;;;;;;0.63;0.30;;;12.20;90.70;;;;;;5031792;28;20051;-73
2022/06/10 08:19:16;;;;;;;4.70;2.55;;;12.10;90.70;;;;;;5038582;28;20025;-72
2022/06/10 08:24:29;;;;;;;3.42;2.05;;;12.00;91.30;;;;;;5049435;28;20113;-74
2022/06/10 08:26:56;;;;;;;4.80;2.60;;;11.90;91.10;;;;;;5049706;28;20110;-73
2022/06/10 08:29:23;;;;;;;4.75;1.92;;;11.80;91.50;;;;;;5044296;28;20144;-74
2022/06/10 08:31:50;;;;;;;2.22;1.35;;;11.70;91.70;;;;;;5033875;28;20106;-73
2022/06/10 08:34:18;;;;;;;1.20;0.70;;;11.70;91.60;;;;;;5045570;28;20025;-74
2022/06/10 08:36:46;;;;;;;1.38;0.50;;;11.60;91.60;;;;;;5049747;28;20086;-74
2022/06/10 08:39:13;;;;;;;0.80;0.45;;;11.60;91.60;;;;;;5043067;28;20502;-72
2022/06/10 08:41:58;;;;;;;1.00;0.45;;;11.60;91.70;;;;;;5047683;28;20047;-73
2022/06/10 08:44:44;;;;;;;0.47;0.22;;;11.50;91.60;;;;;;5046676;28;20079;-73
2022/06/10 08:48:07;;;;;;;0.80;0.30;;;11.60;91.60;;;;;;5050000;28;20082;-73
2022/06/10 08:51:25;;;;;;;0.52;0.30;;;11.60;91.50;;;;;;5006436;28;20042;-74
2022/06/10 08:53:58;;;;;;;;;;;11.70;91.30;;;;;;4956984;28;20042;-72
2022/06/10 08:56:40;;;;;;;1.17;0.40;;;11.70;91.30;;;;;;5029534;28;19905;-73
2022/06/10 08:59:18;;;;;;;1.33;0.40;;;11.70;91.20;;;;;;5036952;28;20025;-72
2022/06/10 09:01:48;;;;;;;0.43;0.28;;;11.70;91.20;;;;;;5044967;28;20050;-73
2022/06/10 09:04:39;;;;;;;0.63;0.30;;;11.70;91.20;;;;;;5035822;28;20075;-72
2022/06/10 09:07:19;;;;;;;0.30;0.25;;;11.60;91.20;;;;;;5038146;28;20017;-73
2022/06/10 09:09:47;;;;;;;0.70;0.30;;;11.70;91.20;;;;;;5038858;28;20120;-73
2022/06/10 09:12:37;;;;;;;0.40;0.30;;;11.60;91.20;;;;;;5038736;28;22086;-73
2022/06/10 09:15:05;;;;;;;1.35;0.70;;;11.60;91.30;;;;;;5044228;28;20085;-73
2022/06/10 09:17:45;;;;;;;0.80;0.32;;;11.50;91.30;;;;;;5044127;28;20748;-72
2022/06/10 09:20:26;;;;;;;0.80;0.30;;;11.50;91.30;;;;;;5044855;28;20037;-73
2022/06/10 09:22:57;;;;;;;0.43;0.28;;;11.50;91.30;;;;;;5047929;28;20117;-73
2022/06/10 09:25:46;;;;;;;1.27;0.50;;;11.40;91.40;;;;;;5038070;28;20108;-71
2022/06/10 09:28:14;;;;;;;1.10;0.40;;;11.40;91.30;;;;;;5030031;28;20488;-72
2022/06/10 09:30:47;;;;;;;1.73;1.25;;;11.40;91.30;;;;;;5033283;28;20076;-72
2022/06/10 09:33:55;;;;;;;2.05;0.93;;;11.40;91.40;;;;;;5035096;28;20043;-73
2022/06/10 09:36:47;;;;;;;1.60;0.60;;;11.40;91.40;;;;;;5032475;28;20041;-72
2022/06/10 09:42:48;;;;;;;1.20;0.75;;;11.30;91.60;;;;;;5035891;28;20545;-73
2022/06/10 09:45:39;;;;;;;1.47;0.40;;;11.10;91.70;;;;;;5040158;28;20092;-73
2022/06/10 09:48:18;;;;;;;2.55;0.73;;;11.10;91.80;;;;;;5028653;28;20776;-73
2022/06/10 09:51:05;;;;;;;1.27;0.60;;;11.10;91.80;;;;;;5048212;28;20041;-72
2022/06/10 09:54:00;;;;;;;1.38;0.43;;;11.00;91.80;;;;;;5047212;28;20513;-72
2022/06/10 09:56:52;;;;;;;1.13;0.60;;;11.00;91.70;;;;;;5047594;28;20028;-73
2022/06/10 09:59:39;;;;;;;1.85;1.05;;;11.00;91.90;;;;;;5031713;28;20033;-72
2022/06/10 10:02:31;;;;;;;0.73;0.40;;;11.00;92.20;;;;;;5047002;28;20057;-72
2022/06/10 10:05:20;;;;;;;0.93;0.30;;;10.90;92.50;;;;;;5042457;28;20383;-71
2022/06/10 10:07:53;;;;;;;1.38;0.80;;;10.90;92.20;;;;;;5040129;28;20024;-71
2022/06/10 10:10:33;;;;;;;0.70;0.40;;;10.90;92.10;;;;;;5050376;28;20475;-72
2022/06/10 10:13:34;;;;;;;1.42;0.75;;;10.90;92.00;;;;;;5050588;28;20033;-73
2022/06/10 10:16:19;;;;;;;1.75;0.80;;;10.90;92.10;;;;;;5033664;28;20188;-72
2022/06/10 10:19:12;;;;;;;2.75;0.88;;;10.80;92.50;;;;;;5042903;28;20040;-72
2022/06/10 10:21:56;;;;;;;1.98;1.42;;;10.70;92.50;;;;;;5046591;28;20037;-72
2022/06/10 10:24:25;;;;;;;1.58;0.63;;;10.60;93.00;;;;;;5050380;28;20096;-73
2022/06/10 10:26:54;;;;;;;2.05;1.40;;;10.50;93.30;;;;;;5048277;28;20017;-73
2022/06/10 10:29:24;;;;;;;2.97;1.40;;;10.30;93.50;;;;;;5040985;28;20107;-73
2022/06/10 10:32:36;;;;;;;1.90;1.25;;;10.20;93.80;;;;;;5036518;28;20371;-72
2022/06/10 10:35:28;;;;;;;3.45;1.45;;;10.00;93.90;;;;;;5025385;28;20436;-72
2022/06/10 10:38:06;;;;;;;4.35;2.00;;;9.90;94.40;;;;;;5032086;28;20041;-73
2022/06/10 10:40:59;;;;;;;4.28;2.53;;;9.90;94.10;;;;;;5051721;28;20033;-72
2022/06/10 10:43:30;;;;;;;5.57;3.13;;;9.90;94.10;;;;;;5047550;28;20042;-73
2022/06/10 10:46:06;;;;;;;3.75;2.35;;;9.80;94.30;;;;;;5050698;28;20120;-73
2022/06/10 10:48:44;;;;;;;2.92;1.80;;;9.90;94.20;;;;;;5047901;28;20389;-73
2022/06/10 10:51:11;;;;;;;4.55;2.85;;;9.90;94.10;;;;;;5051595;28;20040;-73
2022/06/10 10:53:50;;;;;;;4.47;2.58;;;9.90;94.40;;;;;;5049797;28;20083;-73
2022/06/10 10:56:19;;;;;;;5.20;2.53;;;9.80;94.30;;;;;;5051752;28;20371;-73
2022/06/10 10:58:52;;;;;;;4.15;2.70;;;9.70;94.70;;;;;;5041018;28;20179;-73
2022/06/10 11:01:45;;;;;;;3.45;2.20;;;9.60;95.10;;;;;;5048659;28;20045;-74
2022/06/10 11:04:39;;;;;;;3.75;2.67;;;9.50;95.60;;;;;;5041374;28;20028;-74
2022/06/10 11:07:12;;;;;;;6.28;2.90;;;9.30;95.80;;;;;;5031425;28;20095;-73
2022/06/10 11:09:46;;;;;;;7.90;3.97;;;9.20;96.20;;;;;;5039858;28;20496;-73
2022/06/10 11:12:22;;;;;;;5.72;2.88;;;9.10;96.60;;;;;;5042844;28;20644;-74
2022/06/10 11:15:00;;;;;;;3.15;2.15;;;9.00;96.50;;;;;;5045389;28;20032;-74
2022/06/10 11:17:28;;;;;;;4.38;2.67;;;9.00;96.50;;;;;;5041062;28;20037;-73
2022/06/10 11:20:00;;;;;;;6.25;2.72;;;9.00;96.50;;;;;;5049422;28;20041;-73
2022/06/10 11:22:29;;;;;;;4.70;2.40;;;8.90;96.60;;;;;;5051299;28;20087;-73
2022/06/10 11:25:25;;;;;;;4.43;3.17;;;8.90;96.50;;;;;;5045227;28;20032;-72
2022/06/10 11:27:52;;;;;;;4.28;2.20;;;8.90;96.70;;;;;;5051149;28;20029;-72
2022/06/10 11:30:22;;;;;;;6.28;3.35;;;8.80;97.20;;;;;;5049030;28;20033;-72
2022/06/10 11:32:49;;;;;;;3.75;2.97;;;8.70;97.20;;;;;;5035035;28;20034;-73
2022/06/10 11:35:39;;;;;;;6.80;3.25;;;8.60;97.60;;;;;;5049311;28;20025;-73
2022/06/10 11:38:28;;;;;;;3.03;2.40;;;8.60;97.90;;;;;;5050380;28;20088;-73
2022/06/10 11:41:13;;;;;;;5.47;3.63;;;8.50;97.90;;;;;;5038050;28;20104;-72
2022/06/10 11:43:46;;;;;;;4.38;3.00;;;8.50;98.10;;;;;;5036405;28;20021;-74
2022/06/10 11:46:43;;;;;;;5.32;2.90;;;8.40;98.20;;;;;;5049840;28;20507;-72
2022/06/10 11:49:30;;;;;;;7.03;3.40;;;8.30;98.40;;;;;;5047229;28;20065;-72
2022/06/10 11:52:23;;;;;;;5.25;3.10;;;8.30;98.40;;;;;;5035876;28;20032;-73
2022/06/10 11:55:20;;;;;;;2.85;2.35;;;8.20;98.40;;;;;;5032125;28;20033;-72
2022/06/10 12:01:13;;;;;;;3.65;2.28;;;8.10;98.70;;;;;;5030472;28;20192;-73
2022/06/10 12:03:56;;;;;;;2.45;2.00;;;8.10;98.70;;;;;;5041063;28;20027;-73
2022/06/10 12:06:58;;;;;;;5.20;1.85;;;8.10;98.70;;;;;;5028064;28;20368;-74
2022/06/10 12:09:38;;;;;;;4.25;2.17;;;8.10;98.80;;;;;;5040360;28;20084;-73
2022/06/10 12:12:25;;;;;;;4.82;3.15;;;8.10;98.80;;;;;;5047164;28;20102;-73
2022/06/10 12:14:55;;;;;;;7.65;5.50;;;8.00;98.90;;;;;;5044068;28;20686;-73
2022/06/10 12:17:28;;;;;;;9.25;5.35;;;8.00;99.00;;;;;;5030402;28;20083;-73
2022/06/10 12:20:38;;;;;;;8.40;4.82;;;8.00;99.10;;;;;;5042588;28;20051;-73
2022/06/10 12:23:15;;;;;;;5.07;3.55;;;8.00;99.00;;;;;;5039332;28;20041;-73
2022/06/10 12:26:08;;;;;;;4.68;3.33;;;7.90;99.10;;;;;;5039793;28;20033;-73
2022/06/10 12:29:01;;;;;;;6.18;3.17;;;7.90;99.20;;;;;;5038973;28;20028;-72
2022/06/10 12:31:51;;;;;;;9.55;4.28;;;7.80;99.50;;;;;;5022561;28;20606;-74
2022/06/10 12:34:24;;;;;;;5.35;4.03;;;7.80;99.60;;;;;;5034388;28;20432;-74
2022/06/10 12:36:59;;;;;;;6.03;4.55;;;7.90;99.90;;;;;;5035846;28;20036;-73
2022/06/10 12:39:32;;;;;;;7.85;5.07;;;7.90;99.80;;;;;;5032905;28;20029;-73
2022/06/10 12:42:17;;;;;;;7.75;5.20;;;7.90;99.90;;;;;;5034968;28;20048;-73
2022/06/10 12:44:51;;;;;;;7.05;5.05;;;7.90;99.80;;;;;;5045953;28;20033;-73
2022/06/10 12:47:26;;;;;;;5.20;2.90;;;7.80;99.90;;;;;;5048539;28;20348;-72
2022/06/10 12:50:03;;;;;;;6.65;4.18;;;7.70;99.90;;;;;;5041346;28;20084;-73
2022/06/10 12:52:51;;;;;;;8.35;6.32;;;7.70;99.90;;;;;;5044871;28;20029;-74
2022/06/10 12:55:41;;;;;;;8.80;5.53;;;7.60;99.90;;;;;;5044171;28;20064;-73
2022/06/10 12:58:37;;;;;;;7.45;4.20;;;7.50;99.90;;;;;;5044143;28;20545;-73
2022/06/10 13:01:23;;;;;;;9.75;5.50;;;7.40;99.90;;;;;;5036353;28;20041;-72
2022/06/10 13:03:59;;;;;;;10.75;6.53;;;7.40;99.90;;;;;;5036689;28;20443;-72
2022/06/10 13:06:34;;;;;;;10.60;7.88;;;7.30;99.90;;;;;;5033307;28;20025;-75
2022/06/10 13:09:24;;;;;;;13.40;9.85;;;7.20;99.90;;;;;;5047916;28;20057;-74
2022/06/10 13:11:52;;;;;;;14.95;9.57;;;7.10;99.90;;;;;;5044951;28;20080;-73
2022/06/10 13:14:35;;;;;;;10.95;7.70;;;7.00;99.90;;;;;;5035574;28;20024;-73
2022/06/10 13:17:22;;;;;;;10.23;6.60;;;7.10;99.90;;;;;;5056790;28;20020;-73
2022/06/10 13:19:58;;;;;;;8.65;6.75;;;7.00;99.90;;;;;;5031529;28;20033;-73
2022/06/10 13:22:33;;;;;;;8.00;6.03;;;6.90;99.90;;;;;;5033281;28;20038;-72
2022/06/10 13:25:01;;;;;;;9.65;6.03;;;6.80;99.90;;;;;;5036786;28;20030;-74
2022/06/10 13:27:58;;;;;;;9.20;6.07;;;6.80;99.90;;;;;;5030060;28;20103;-74
2022/06/10 13:30:30;;;;;;;11.75;7.25;;;6.80;99.90;;;;;;5031479;28;20383;-73
2022/06/10 13:32:58;;;;;;;9.85;6.63;;;6.80;99.90;;;;;;5037326;28;20510;-73
2022/06/10 13:35:48;;;;;;;10.07;5.88;;;6.80;99.90;;;;;;5040370;28;20116;-73
2022/06/10 13:38:21;;;;;;;8.68;4.72;;;6.70;99.90;;;;;;5039555;28;20052;-74
2022/06/10 13:43:46;;;;;;;6.75;5.18;;;6.60;99.90;;;;;;5035703;28;20448;-72
2022/06/10 13:46:25;;;;;;;8.32;6.07;;;6.50;99.90;;;;;;5051723;28;20044;-73
2022/06/10 13:49:17;;;;;;;13.15;6.90;;;6.50;99.90;;;;;;5034126;28;20061;-75